sensor_id;sensor_type;location;lat;lon;timestamp;pressure;altitude;pressure_sealevel;temperature;humidity
40992;BME280;29633;49.168;9.848;2023-04-05T00:01:22;97383.56;;;6.97;55.45
40992;BME280;29633;49.168;9.848;2023-04-05T00:03:56;97389.72;;;6.94;55.22
40992;BME280;29633;49.168;9.848;2023-04-05T00:06:24;97384.91;;;6.88;55.51
40992;BME280;29633;49.168;9.848;2023-04-05T00:08:57;97387.56;;;6.86;55.44
40992;BME280;29633;49.168;9.848;2023-04-05T00:11:23;97384.22;;;6.84;55.48
40992;BME280;29633;49.168;9.848;2023-04-05T00:13:49;97380.09;;;6.82;55.29
40992;BME280;29633;49.168;9.848;2023-04-05T00:16:15;97380.16;;;6.80;55.32
40992;BME280;29633;49.168;9.848;2023-04-05T00:18:41;97383.69;;;6.79;55.41
40992;BME280;29633;49.168;9.848;2023-04-05T00:21:17;97371.69;;;6.78;55.44
40992;BME280;29633;49.168;9.848;2023-04-05T00:23:48;97374.34;;;6.77;55.41
40992;BME280;29633;49.168;9.848;2023-04-05T00:26:16;97366.78;;;6.74;55.30
40992;BME280;29633;49.168;9.848;2023-04-05T00:28:42;97363.50;;;6.72;55.35
40992;BME280;29633;49.168;9.848;2023-04-05T00:31:08;97362.81;;;6.68;55.30
40992;BME280;29633;49.168;9.848;2023-04-05T00:33:33;97362.81;;;6.68;55.51
40992;BME280;29633;49.168;9.848;2023-04-05T00:36:15;97357.84;;;6.65;55.41
40992;BME280;29633;49.168;9.848;2023-04-05T00:38:42;97356.34;;;6.61;55.41
40992;BME280;29633;49.168;9.848;2023-04-05T00:41:09;97363.31;;;6.59;55.50
40992;BME280;29633;49.168;9.848;2023-04-05T00:43:35;97351.44;;;6.57;55.39
40992;BME280;29633;49.168;9.848;2023-04-05T00:46:01;97353.28;;;6.55;55.55
40992;BME280;29633;49.168;9.848;2023-04-05T00:48:28;97349.28;;;6.49;55.53
40992;BME280;29633;49.168;9.848;2023-04-05T00:50:54;97350.13;;;6.50;55.55
40992;BME280;29633;49.168;9.848;2023-04-05T00:53:20;97347.56;;;6.50;55.50
40992;BME280;29633;49.168;9.848;2023-04-05T00:55:46;97345.03;;;6.48;55.60
40992;BME280;29633;49.168;9.848;2023-04-05T00:58:13;97334.00;;;6.46;55.63
40992;BME280;29633;49.168;9.848;2023-04-05T01:00:42;97332.16;;;6.48;55.28
40992;BME280;29633;49.168;9.848;2023-04-05T01:03:12;97327.13;;;6.47;55.67
40992;BME280;29633;49.168;9.848;2023-04-05T01:05:39;97321.03;;;6.48;55.59
40992;BME280;29633;49.168;9.848;2023-04-05T01:08:31;97326.34;;;6.44;55.54
40992;BME280;29633;49.168;9.848;2023-04-05T01:11:01;97317.91;;;6.42;55.66
40992;BME280;29633;49.168;9.848;2023-04-05T01:13:31;97315.50;;;6.39;55.62
40992;BME280;29633;49.168;9.848;2023-04-05T01:15:57;97315.56;;;6.38;55.57
40992;BME280;29633;49.168;9.848;2023-04-05T01:18:23;97310.66;;;6.33;55.58
40992;BME280;29633;49.168;9.848;2023-04-05T01:21:20;97309.94;;;6.31;55.77
40992;BME280;29633;49.168;9.848;2023-04-05T01:35:20;97308.28;;;6.15;55.77
40992;BME280;29633;49.168;9.848;2023-04-05T01:37:49;97306.78;;;6.11;55.74
40992;BME280;29633;49.168;9.848;2023-04-05T01:40:17;97314.50;;;6.11;55.88
40992;BME280;29633;49.168;9.848;2023-04-05T01:42:43;97312.84;;;6.10;55.78
40992;BME280;29633;49.168;9.848;2023-04-05T01:45:10;97306.19;;;6.06;55.73
40992;BME280;29633;49.168;9.848;2023-04-05T01:47:36;97304.53;;;6.05;55.87
40992;BME280;29633;49.168;9.848;2023-04-05T01:50:01;97308.84;;;6.04;55.83
40992;BME280;29633;49.168;9.848;2023-04-05T01:52:27;97314.09;;;6.03;55.89
40992;BME280;29633;49.168;9.848;2023-04-05T01:54:53;97312.50;;;6.00;55.83
40992;BME280;29633;49.168;9.848;2023-04-05T01:57:18;97307.44;;;5.99;55.89
40992;BME280;29633;49.168;9.848;2023-04-05T01:59:44;97307.69;;;5.94;55.80
40992;BME280;29633;49.168;9.848;2023-04-05T02:02:10;97302.69;;;5.91;55.95
40992;BME280;29633;49.168;9.848;2023-04-05T02:04:35;97297.66;;;5.89;55.92
40992;BME280;29633;49.168;9.848;2023-04-05T02:07:01;97303.78;;;5.87;56.00
40992;BME280;29633;49.168;9.848;2023-04-05T02:09:28;97303.84;;;5.85;55.86
40992;BME280;29633;49.168;9.848;2023-04-05T02:11:53;97301.41;;;5.82;55.85
40992;BME280;29633;49.168;9.848;2023-04-05T02:14:19;97304.97;;;5.80;55.94
40992;BME280;29633;49.168;9.848;2023-04-05T02:16:45;97295.69;;;5.77;55.82
40992;BME280;29633;49.168;9.848;2023-04-05T02:19:10;97292.50;;;5.72;55.92
40992;BME280;29633;49.168;9.848;2023-04-05T02:21:37;97295.41;;;5.66;56.04
40992;BME280;29633;49.168;9.848;2023-04-05T02:24:03;97293.19;;;5.60;55.99
40992;BME280;29633;49.168;9.848;2023-04-05T02:26:29;97290.50;;;5.62;56.23
40992;BME280;29633;49.168;9.848;2023-04-05T02:28:55;97282.78;;;5.62;56.02
40992;BME280;29633;49.168;9.848;2023-04-05T02:31:20;97289.69;;;5.61;56.00
40992;BME280;29633;49.168;9.848;2023-04-05T02:33:46;97278.66;;;5.59;56.18
40992;BME280;29633;49.168;9.848;2023-04-05T02:36:13;97286.44;;;5.58;56.10
40992;BME280;29633;49.168;9.848;2023-04-05T02:38:39;97278.72;;;5.58;56.00
40992;BME280;29633;49.168;9.848;2023-04-05T02:41:09;97273.69;;;5.56;56.19
40992;BME280;29633;49.168;9.848;2023-04-05T02:43:36;97283.88;;;5.58;56.04
40992;BME280;29633;49.168;9.848;2023-04-05T02:46:02;97269.44;;;5.55;56.08
40992;BME280;29633;49.168;9.848;2023-04-05T02:48:27;97269.66;;;5.51;56.16
40992;BME280;29633;49.168;9.848;2023-04-05T02:50:53;97272.41;;;5.47;56.22
40992;BME280;29633;49.168;9.848;2023-04-05T02:53:19;97277.66;;;5.46;56.10
40992;BME280;29633;49.168;9.848;2023-04-05T02:55:55;97275.97;;;5.45;56.18
40992;BME280;29633;49.168;9.848;2023-04-05T02:58:21;97269.09;;;5.45;56.09
40992;BME280;29633;49.168;9.848;2023-04-05T03:00:48;97273.56;;;5.42;56.20
40992;BME280;29633;49.168;9.848;2023-04-05T03:03:22;97271.97;;;5.39;56.26
40992;BME280;29633;49.168;9.848;2023-04-05T03:05:48;97265.19;;;5.38;56.11
40992;BME280;29633;49.168;9.848;2023-04-05T03:08:14;97270.38;;;5.37;56.19
40992;BME280;29633;49.168;9.848;2023-04-05T03:10:46;97268.72;;;5.36;56.50
40992;BME280;29633;49.168;9.848;2023-04-05T03:13:13;97262.75;;;5.35;56.18
40992;BME280;29633;49.168;9.848;2023-04-05T03:15:39;97260.44;;;5.31;56.26
40992;BME280;29633;49.168;9.848;2023-04-05T03:18:06;97258.69;;;5.31;56.11
40992;BME280;29633;49.168;9.848;2023-04-05T03:20:36;97254.22;;;5.35;56.31
40992;BME280;29633;49.168;9.848;2023-04-05T03:23:07;97255.97;;;5.34;56.17
40992;BME280;29633;49.168;9.848;2023-04-05T03:25:38;97253.47;;;5.33;56.27
40992;BME280;29633;49.168;9.848;2023-04-05T03:28:06;97253.56;;;5.31;56.42
40992;BME280;29633;49.168;9.848;2023-04-05T03:30:33;97253.69;;;5.28;56.48
40992;BME280;29633;49.168;9.848;2023-04-05T03:32:59;97265.06;;;5.24;56.55
40992;BME280;29633;49.168;9.848;2023-04-05T03:35:29;97267.88;;;5.20;56.25
40992;BME280;29633;49.168;9.848;2023-04-05T03:37:55;97264.78;;;5.13;56.33
40992;BME280;29633;49.168;9.848;2023-04-05T03:40:22;97263.19;;;5.11;56.47
40992;BME280;29633;49.168;9.848;2023-04-05T03:42:47;97265.00;;;5.09;56.51
40992;BME280;29633;49.168;9.848;2023-04-05T03:45:13;97264.34;;;5.05;56.50
40992;BME280;29633;49.168;9.848;2023-04-05T03:47:39;97265.22;;;5.04;56.34
40992;BME280;29633;49.168;9.848;2023-04-05T03:50:05;97268.56;;;5.06;56.29
40992;BME280;29633;49.168;9.848;2023-04-05T03:52:31;97269.38;;;5.07;56.05
40992;BME280;29633;49.168;9.848;2023-04-05T03:54:56;97268.47;;;5.08;56.35
40992;BME280;29633;49.168;9.848;2023-04-05T03:57:22;97267.63;;;5.07;56.36
40992;BME280;29633;49.168;9.848;2023-04-05T03:59:48;97269.38;;;5.07;56.11
40992;BME280;29633;49.168;9.848;2023-04-05T04:02:13;97277.09;;;5.07;56.26
40992;BME280;29633;49.168;9.848;2023-04-05T04:04:39;97267.72;;;5.06;56.08
40992;BME280;29633;49.168;9.848;2023-04-05T04:07:05;97266.81;;;5.07;56.10
40992;BME280;29633;49.168;9.848;2023-04-05T04:09:31;97265.16;;;5.06;56.28
40992;BME280;29633;49.168;9.848;2023-04-05T04:11:56;97260.94;;;5.05;56.08
40992;BME280;29633;49.168;9.848;2023-04-05T04:14:23;97266.22;;;5.02;56.10
40992;BME280;29633;49.168;9.848;2023-04-05T04:16:49;97266.28;;;5.00;56.19
40992;BME280;29633;49.168;9.848;2023-04-05T04:19:19;97257.84;;;4.98;56.10
40992;BME280;29633;49.168;9.848;2023-04-05T04:21:44;97258.69;;;4.99;56.24
40992;BME280;29633;49.168;9.848;2023-04-05T04:24:15;97257.00;;;4.97;56.10
40992;BME280;29633;49.168;9.848;2023-04-05T04:26:46;97263.03;;;4.96;56.38
40992;BME280;29633;49.168;9.848;2023-04-05T04:29:12;97258.06;;;4.93;56.17
40992;BME280;29633;49.168;9.848;2023-04-05T04:31:40;97262.47;;;4.91;56.15
40992;BME280;29633;49.168;9.848;2023-04-05T04:34:12;97264.19;;;4.91;56.30
40992;BME280;29633;49.168;9.848;2023-04-05T04:36:39;97265.25;;;4.87;56.35
40992;BME280;29633;49.168;9.848;2023-04-05T04:39:07;97263.59;;;4.86;56.27
40992;BME280;29633;49.168;9.848;2023-04-05T04:41:35;97268.03;;;4.82;56.22
40992;BME280;29633;49.168;9.848;2023-04-05T04:44:03;97270.59;;;4.82;56.27
40992;BME280;29633;49.168;9.848;2023-04-05T04:46:32;97262.75;;;4.85;56.46
40992;BME280;29633;49.168;9.848;2023-04-05T04:49:02;97257.44;;;4.88;56.20
40992;BME280;29633;49.168;9.848;2023-04-05T04:51:31;97260.63;;;4.93;56.31
40992;BME280;29633;49.168;9.848;2023-04-05T04:53:57;97263.13;;;4.95;56.35
40992;BME280;29633;49.168;9.848;2023-04-05T04:56:23;97263.97;;;4.95;56.27
40992;BME280;29633;49.168;9.848;2023-04-05T04:58:48;97260.47;;;4.96;56.19
40992;BME280;29633;49.168;9.848;2023-04-05T05:01:14;97260.47;;;4.96;56.37
40992;BME280;29633;49.168;9.848;2023-04-05T05:03:41;97264.72;;;4.97;56.28
40992;BME280;29633;49.168;9.848;2023-04-05T05:06:07;97269.84;;;4.97;56.09
40992;BME280;29633;49.168;9.848;2023-04-05T05:08:33;97268.19;;;4.96;56.21
40992;BME280;29633;49.168;9.848;2023-04-05T05:10:59;97267.44;;;4.94;56.24
40992;BME280;29633;49.168;9.848;2023-04-05T05:13:25;97265.78;;;4.93;56.21
40992;BME280;29633;49.168;9.848;2023-04-05T05:15:51;97265.03;;;4.91;56.46
40992;BME280;29633;49.168;9.848;2023-04-05T05:18:19;97269.34;;;4.91;56.30
40992;BME280;29633;49.168;9.848;2023-04-05T05:20:44;97264.94;;;4.93;56.36
40992;BME280;29633;49.168;9.848;2023-04-05T05:23:14;97265.72;;;4.95;56.29
40992;BME280;29633;49.168;9.848;2023-04-05T05:25:40;97267.28;;;4.97;56.31
40992;BME280;29633;49.168;9.848;2023-04-05T05:28:06;97268.03;;;5.00;56.29
40992;BME280;29633;49.168;9.848;2023-04-05T05:30:32;97262.88;;;5.00;56.38
40992;BME280;29633;49.168;9.848;2023-04-05T05:32:58;97270.38;;;5.04;56.34
40992;BME280;29633;49.168;9.848;2023-04-05T05:35:24;97270.31;;;5.06;56.09
40992;BME280;29633;49.168;9.848;2023-04-05T05:37:49;97266.75;;;5.08;56.33
40992;BME280;29633;49.168;9.848;2023-04-05T05:40:15;97267.47;;;5.10;56.26
40992;BME280;29633;49.168;9.848;2023-04-05T05:42:41;97268.31;;;5.11;56.60
40992;BME280;29633;49.168;9.848;2023-04-05T05:45:07;97273.28;;;5.14;56.62
40992;BME280;29633;49.168;9.848;2023-04-05T05:47:32;97273.16;;;5.17;56.32
40992;BME280;29633;49.168;9.848;2023-04-05T05:49:58;97272.16;;;5.19;56.47
40992;BME280;29633;49.168;9.848;2023-04-05T05:52:24;97279.56;;;5.25;56.53
40992;BME280;29633;49.168;9.848;2023-04-05T05:54:50;97268.88;;;5.33;56.78
40992;BME280;29633;49.168;9.848;2023-04-05T05:57:15;97274.41;;;5.42;56.56
40992;BME280;29633;49.168;9.848;2023-04-05T05:59:41;97274.91;;;5.49;56.64
40992;BME280;29633;49.168;9.848;2023-04-05T06:02:07;97271.09;;;5.56;56.54
40992;BME280;29633;49.168;9.848;2023-04-05T06:04:32;97275.75;;;5.65;56.47
40992;BME280;29633;49.168;9.848;2023-04-05T06:07:02;97267.47;;;5.76;56.62
40992;BME280;29633;49.168;9.848;2023-04-05T06:09:28;97277.34;;;5.83;56.50
40992;BME280;29633;49.168;9.848;2023-04-05T06:11:54;97279.47;;;5.92;56.51
40992;BME280;29633;49.168;9.848;2023-04-05T06:14:21;97275.66;;;6.00;56.39
40992;BME280;29633;49.168;9.848;2023-04-05T06:16:47;97281.13;;;6.09;56.35
40992;BME280;29633;49.168;9.848;2023-04-05T06:19:13;97283.09;;;6.20;56.43
40992;BME280;29633;49.168;9.848;2023-04-05T06:21:38;97281.78;;;6.28;56.49
40992;BME280;29633;49.168;9.848;2023-04-05T06:24:04;97276.13;;;6.37;56.46
40992;BME280;29633;49.168;9.848;2023-04-05T06:26:30;97272.22;;;6.46;56.32
40992;BME280;29633;49.168;9.848;2023-04-05T06:28:56;97281.06;;;6.56;56.29
40992;BME280;29633;49.168;9.848;2023-04-05T06:31:26;97277.22;;;6.63;56.50
40992;BME280;29633;49.168;9.848;2023-04-05T06:33:52;97284.47;;;6.72;56.35
40992;BME280;29633;49.168;9.848;2023-04-05T06:36:18;97275.47;;;6.79;56.45
40992;BME280;29633;49.168;9.848;2023-04-05T06:38:43;97274.00;;;6.89;56.36
40992;BME280;29633;49.168;9.848;2023-04-05T06:41:09;97276.97;;;6.98;56.40
40992;BME280;29633;49.168;9.848;2023-04-05T06:43:35;97271.28;;;7.07;56.37
40992;BME280;29633;49.168;9.848;2023-04-05T06:46:00;97275.91;;;7.16;56.39
40992;BME280;29633;49.168;9.848;2023-04-05T06:48:27;97278.03;;;7.23;56.33
40992;BME280;29633;49.168;9.848;2023-04-05T06:50:57;97272.41;;;7.31;56.30
40992;BME280;29633;49.168;9.848;2023-04-05T06:53:23;97274.53;;;7.38;56.48
40992;BME280;29633;49.168;9.848;2023-04-05T06:55:50;97278.31;;;7.47;56.48
40992;BME280;29633;49.168;9.848;2023-04-05T06:58:16;97279.53;;;7.56;56.38
40992;BME280;29633;49.168;9.848;2023-04-05T07:00:42;97278.13;;;7.64;56.62
40992;BME280;29633;49.168;9.848;2023-04-05T07:03:07;97275.00;;;7.73;56.40
40992;BME280;29633;49.168;9.848;2023-04-05T07:05:33;97278.69;;;7.83;56.44
40992;BME280;29633;49.168;9.848;2023-04-05T07:07:58;97276.25;;;7.95;56.34
40992;BME280;29633;49.168;9.848;2023-04-05T07:10:24;97267.66;;;8.08;56.43
40992;BME280;29633;49.168;9.848;2023-04-05T07:12:50;97264.84;;;8.25;56.08
40992;BME280;29633;49.168;9.848;2023-04-05T07:15:15;97267.66;;;8.49;55.92
40992;BME280;29633;49.168;9.848;2023-04-05T07:17:43;97267.09;;;8.71;55.87
40992;BME280;29633;49.168;9.848;2023-04-05T07:20:10;97273.03;;;8.85;55.95
40992;BME280;29633;49.168;9.848;2023-04-05T07:22:35;97271.38;;;8.84;55.76
40992;BME280;29633;49.168;9.848;2023-04-05T07:25:01;97267.13;;;8.83;55.98
40992;BME280;29633;49.168;9.848;2023-04-05T07:27:30;97270.94;;;8.78;56.16
40992;BME280;29633;49.168;9.848;2023-04-05T07:29:56;97270.84;;;8.79;56.19
40992;BME280;29633;49.168;9.848;2023-04-05T07:32:22;97271.88;;;8.77;56.59
40992;BME280;29633;49.168;9.848;2023-04-05T07:34:47;97269.19;;;8.78;56.15
40992;BME280;29633;49.168;9.848;2023-04-05T07:37:13;97273.97;;;8.84;56.16
40992;BME280;29633;49.168;9.848;2023-04-05T07:39:39;97264.16;;;8.89;56.13
40992;BME280;29633;49.168;9.848;2023-04-05T07:42:05;97268.91;;;8.96;56.29
40992;BME280;29633;49.168;9.848;2023-04-05T07:44:31;97273.66;;;9.02;56.31
40992;BME280;29633;49.168;9.848;2023-04-05T07:46:57;97270.06;;;9.04;56.18
40992;BME280;29633;49.168;9.848;2023-04-05T07:49:26;97272.34;;;9.09;56.43
40992;BME280;29633;49.168;9.848;2023-04-05T07:51:58;97278.75;;;9.16;56.35
40992;BME280;29633;49.168;9.848;2023-04-05T07:54:23;97270.91;;;9.17;56.26
40992;BME280;29633;49.168;9.848;2023-04-05T07:56:50;97269.47;;;9.26;56.17
40992;BME280;29633;49.168;9.848;2023-04-05T07:59:16;97273.19;;;9.34;56.03
40992;BME280;29633;49.168;9.848;2023-04-05T08:01:41;97279.28;;;9.46;56.05
40992;BME280;29633;49.168;9.848;2023-04-05T08:04:07;97273.38;;;9.57;56.11
40992;BME280;29633;49.168;9.848;2023-04-05T08:06:33;97273.78;;;9.63;55.93
40992;BME280;29633;49.168;9.848;2023-04-05T08:08:59;97272.34;;;9.72;55.85
40992;BME280;29633;49.168;9.848;2023-04-05T08:11:24;97273.44;;;9.80;55.85
40992;BME280;29633;49.168;9.848;2023-04-05T08:13:51;97276.94;;;9.92;55.99
40992;BME280;29633;49.168;9.848;2023-04-05T08:16:18;97275.09;;;9.94;55.95
40992;BME280;29633;49.168;9.848;2023-04-05T08:18:44;97273.84;;;10.00;55.89
40992;BME280;29633;49.168;9.848;2023-04-05T08:21:09;97270.81;;;10.06;55.96
40992;BME280;29633;49.168;9.848;2023-04-05T08:23:35;97266.56;;;10.17;55.62
40992;BME280;29633;49.168;9.848;2023-04-05T08:26:01;97260.63;;;10.28;55.77
40992;BME280;29633;49.168;9.848;2023-04-05T08:28:26;97262.44;;;10.38;55.58
40992;BME280;29633;49.168;9.848;2023-04-05T08:30:53;97250.50;;;10.49;55.52
40992;BME280;29633;49.168;9.848;2023-04-05T08:33:19;97260.78;;;10.61;55.64
40992;BME280;29633;49.168;9.848;2023-04-05T08:35:45;97262.13;;;10.67;55.63
40992;BME280;29633;49.168;9.848;2023-04-05T08:38:11;97257.09;;;10.76;55.47
40992;BME280;29633;49.168;9.848;2023-04-05T08:40:42;97259.72;;;10.88;55.63
40992;BME280;29633;49.168;9.848;2023-04-05T08:43:27;97252.41;;;10.93;55.47
40992;BME280;29633;49.168;9.848;2023-04-05T08:45:58;97257.38;;;10.96;55.38
40992;BME280;29633;49.168;9.848;2023-04-05T08:48:25;97258.22;;;11.07;55.39
40992;BME280;29633;49.168;9.848;2023-04-05T08:50:54;97259.06;;;11.19;55.27
40992;BME280;29633;49.168;9.848;2023-04-05T08:53:20;97261.69;;;11.30;55.27
40992;BME280;29633;49.168;9.848;2023-04-05T08:55:50;97268.56;;;11.42;55.34
40992;BME280;29633;49.168;9.848;2023-04-05T08:58:16;97263.38;;;11.53;55.14
40992;BME280;29633;49.168;9.848;2023-04-05T09:00:44;97264.44;;;11.62;55.17
40992;BME280;29633;49.168;9.848;2023-04-05T09:03:13;97266.97;;;11.74;55.17
40992;BME280;29633;49.168;9.848;2023-04-05T09:05:40;97267.66;;;11.88;54.84
40992;BME280;29633;49.168;9.848;2023-04-05T09:08:09;97263.63;;;11.95;55.22
40992;BME280;29633;49.168;9.848;2023-04-05T09:10:35;97266.13;;;11.96;55.38
40992;BME280;29633;49.168;9.848;2023-04-05T09:13:03;97265.63;;;12.02;55.09
40992;BME280;29633;49.168;9.848;2023-04-05T09:15:29;97265.63;;;12.13;55.11
40992;BME280;29633;49.168;9.848;2023-04-05T09:17:55;97265.03;;;12.21;55.12
40992;BME280;29633;49.168;9.848;2023-04-05T09:20:21;97260.75;;;12.31;55.14
40992;BME280;29633;49.168;9.848;2023-04-05T09:22:47;97262.97;;;12.47;54.86
40992;BME280;29633;49.168;9.848;2023-04-05T09:27:57;97265.56;;;12.78;54.83
40992;BME280;29633;49.168;9.848;2023-04-05T09:30:24;97262.91;;;12.90;54.66
40992;BME280;29633;49.168;9.848;2023-04-05T09:32:51;97260.06;;;12.93;54.66
40992;BME280;29633;49.168;9.848;2023-04-05T09:35:20;97251.72;;;12.99;54.63
40992;BME280;29633;49.168;9.848;2023-04-05T09:37:57;97244.97;;;13.07;54.89
40992;BME280;29633;49.168;9.848;2023-04-05T09:40:23;97244.00;;;13.08;54.81
40992;BME280;29633;49.168;9.848;2023-04-05T09:42:48;97247.53;;;13.18;54.88
40992;BME280;29633;49.168;9.848;2023-04-05T09:45:15;97250.44;;;13.25;54.82
40992;BME280;29633;49.168;9.848;2023-04-05T09:47:52;97252.28;;;13.34;54.82
40992;BME280;29633;49.168;9.848;2023-04-05T09:50:18;97258.22;;;13.46;54.81
40992;BME280;29633;49.168;9.848;2023-04-05T09:52:44;97252.13;;;13.56;54.68
40992;BME280;29633;49.168;9.848;2023-04-05T09:55:11;97255.16;;;13.61;54.64
40992;BME280;29633;49.168;9.848;2023-04-05T09:57:39;97245.75;;;13.49;54.68
40992;BME280;29633;49.168;9.848;2023-04-05T10:00:15;97245.00;;;13.58;54.73
40992;BME280;29633;49.168;9.848;2023-04-05T10:02:41;97246.97;;;13.66;54.48
40992;BME280;29633;49.168;9.848;2023-04-05T10:05:10;97250.56;;;13.74;54.62
40992;BME280;29633;49.168;9.848;2023-04-05T10:07:44;97252.13;;;13.87;54.48
40992;BME280;29633;49.168;9.848;2023-04-05T10:10:10;97243.50;;;13.96;54.55
40992;BME280;29633;49.168;9.848;2023-04-05T10:12:38;97244.06;;;13.99;54.41
40992;BME280;29633;49.168;9.848;2023-04-05T10:15:09;97239.41;;;14.03;54.51
40992;BME280;29633;49.168;9.848;2023-04-05T10:17:45;97229.94;;;14.02;54.49
40992;BME280;29633;49.168;9.848;2023-04-05T10:20:20;97231.06;;;14.09;54.21
40992;BME280;29633;49.168;9.848;2023-04-05T10:28:03;97223.41;;;14.26;54.21
40992;BME280;29633;49.168;9.848;2023-04-05T10:30:42;97217.63;;;14.32;54.05
40992;BME280;29633;49.168;9.848;2023-04-05T10:33:29;97226.19;;;14.44;54.15
40992;BME280;29633;49.168;9.848;2023-04-05T10:36:05;97218.09;;;14.47;54.24
40992;BME280;29633;49.168;9.848;2023-04-05T10:38:41;97216.75;;;14.53;54.37
40992;BME280;29633;49.168;9.848;2023-04-05T10:41:11;97219.50;;;14.61;54.16
40992;BME280;29633;49.168;9.848;2023-04-05T10:43:39;97219.50;;;14.61;54.27
40992;BME280;29633;49.168;9.848;2023-04-05T10:46:06;97227.75;;;14.47;54.44
40992;BME280;29633;49.168;9.848;2023-04-05T10:50:57;97223.06;;;14.60;54.29
40992;BME280;29633;49.168;9.848;2023-04-05T10:53:24;97221.97;;;14.72;54.09
40992;BME280;29633;49.168;9.848;2023-04-05T10:55:50;97216.75;;;14.82;54.09
40992;BME280;29633;49.168;9.848;2023-04-05T10:58:16;97217.56;;;14.92;54.10
40992;BME280;29633;49.168;9.848;2023-04-05T11:00:42;97223.56;;;15.02;54.09
40992;BME280;29633;49.168;9.848;2023-04-05T11:03:10;97217.38;;;15.12;54.09
40992;BME280;29633;49.168;9.848;2023-04-05T11:05:35;97223.97;;;15.16;54.08
40992;BME280;29633;49.168;9.848;2023-04-05T11:08:06;97218.34;;;15.21;53.91
40992;BME280;29633;49.168;9.848;2023-04-05T11:10:36;97218.03;;;15.24;54.00
40992;BME280;29633;49.168;9.848;2023-04-05T11:13:03;97206.94;;;15.22;53.94
40992;BME280;29633;49.168;9.848;2023-04-05T11:15:29;97212.81;;;15.24;53.95
40992;BME280;29633;49.168;9.848;2023-04-05T11:23:08;97211.41;;;15.49;53.72
40992;BME280;29633;49.168;9.848;2023-04-05T11:25:37;97202.84;;;15.56;53.79
40992;BME280;29633;49.168;9.848;2023-04-05T11:28:06;97199.56;;;15.54;53.88
40992;BME280;29633;49.168;9.848;2023-04-05T11:30:52;97201.75;;;15.59;53.80
40992;BME280;29633;49.168;9.848;2023-04-05T11:33:37;97195.47;;;15.52;53.89
40992;BME280;29633;49.168;9.848;2023-04-05T11:36:03;97190.22;;;15.42;54.28
40992;BME280;29633;49.168;9.848;2023-04-05T11:38:29;97189.56;;;15.31;54.27
40992;BME280;29633;49.168;9.848;2023-04-05T11:41:05;97194.94;;;15.29;54.19
40992;BME280;29633;49.168;9.848;2023-04-05T11:43:32;97186.16;;;15.30;54.01
40992;BME280;29633;49.168;9.848;2023-04-05T11:46:01;97187.66;;;15.33;53.89
40992;BME280;29633;49.168;9.848;2023-04-05T11:48:28;97187.91;;;15.39;53.90
40992;BME280;29633;49.168;9.848;2023-04-05T11:50:54;97189.53;;;15.50;53.81
40992;BME280;29633;49.168;9.848;2023-04-05T11:53:21;97182.78;;;15.57;53.73
40992;BME280;29633;49.168;9.848;2023-04-05T11:55:48;97181.63;;;15.69;53.61
40992;BME280;29633;49.168;9.848;2023-04-05T11:58:20;97171.81;;;15.81;53.51
40992;BME280;29633;49.168;9.848;2023-04-05T12:01:06;97177.19;;;15.79;53.70
40992;BME280;29633;49.168;9.848;2023-04-05T12:03:32;97171.72;;;15.72;53.64
40992;BME280;29633;49.168;9.848;2023-04-05T12:05:59;97170.94;;;15.62;53.65
40992;BME280;29633;49.168;9.848;2023-04-05T12:11:08;97168.22;;;15.54;53.52
40992;BME280;29633;49.168;9.848;2023-04-05T12:13:35;97171.13;;;15.51;53.60
40992;BME280;29633;49.168;9.848;2023-04-05T12:16:03;97162.72;;;15.48;53.47
40992;BME280;29633;49.168;9.848;2023-04-05T12:18:31;97157.38;;;15.49;53.37
40992;BME280;29633;49.168;9.848;2023-04-05T12:20:59;97155.59;;;15.40;53.45
40992;BME280;29633;49.168;9.848;2023-04-05T12:23:25;97150.56;;;15.29;53.31
40992;BME280;29633;49.168;9.848;2023-04-05T12:25:52;97157.31;;;15.22;53.43
40992;BME280;29633;49.168;9.848;2023-04-05T12:28:18;97152.38;;;15.19;53.36
40992;BME280;29633;49.168;9.848;2023-04-05T12:30:55;97151.78;;;15.25;53.31
40992;BME280;29633;49.168;9.848;2023-04-05T12:33:33;97147.94;;;15.29;53.04
40992;BME280;29633;49.168;9.848;2023-04-05T12:36:04;97141.59;;;15.32;53.02
40992;BME280;29633;49.168;9.848;2023-04-05T12:38:30;97138.81;;;15.43;53.07
40992;BME280;29633;49.168;9.848;2023-04-05T12:41:01;97132.88;;;15.50;52.79
40992;BME280;29633;49.168;9.848;2023-04-05T12:43:37;97137.53;;;15.56;52.84
40992;BME280;29633;49.168;9.848;2023-04-05T12:46:10;97133.66;;;15.60;52.94
40992;BME280;29633;49.168;9.848;2023-04-05T12:48:36;97124.69;;;15.63;52.93
40992;BME280;29633;49.168;9.848;2023-04-05T12:51:03;97124.03;;;15.61;52.91
40992;BME280;29633;49.168;9.848;2023-04-05T12:53:29;97110.13;;;15.60;53.09
40992;BME280;29633;49.168;9.848;2023-04-05T12:55:56;97112.16;;;15.66;52.95
40992;BME280;29633;49.168;9.848;2023-04-05T12:58:35;97111.88;;;15.69;53.07
40992;BME280;29633;49.168;9.848;2023-04-05T13:01:02;97108.16;;;15.72;52.98
40992;BME280;29633;49.168;9.848;2023-04-05T13:03:28;97109.63;;;15.74;53.05
40992;BME280;29633;49.168;9.848;2023-04-05T13:05:54;97113.53;;;15.88;52.79
40992;BME280;29633;49.168;9.848;2023-04-05T13:08:19;97105.78;;;15.96;52.80
40992;BME280;29633;49.168;9.848;2023-04-05T13:10:46;97111.25;;;16.03;52.86
40992;BME280;29633;49.168;9.848;2023-04-05T13:13:15;97100.56;;;15.96;52.99
40992;BME280;29633;49.168;9.848;2023-04-05T13:15:44;97103.91;;;15.89;52.89
40992;BME280;29633;49.168;9.848;2023-04-05T13:18:09;97096.06;;;15.89;52.91
40992;BME280;29633;49.168;9.848;2023-04-05T13:20:42;97096.03;;;15.98;52.75
40992;BME280;29633;49.168;9.848;2023-04-05T13:23:08;97101.16;;;16.08;52.67
40992;BME280;29633;49.168;9.848;2023-04-05T13:25:36;97099.28;;;16.18;52.78
40992;BME280;29633;49.168;9.848;2023-04-05T13:28:02;97096.09;;;16.24;52.77
40992;BME280;29633;49.168;9.848;2023-04-05T13:30:28;97099.38;;;16.26;52.70
40992;BME280;29633;49.168;9.848;2023-04-05T13:32:54;97096.44;;;16.29;52.68
40992;BME280;29633;49.168;9.848;2023-04-05T13:35:20;97089.56;;;16.28;52.68
40992;BME280;29633;49.168;9.848;2023-04-05T13:37:46;97088.47;;;16.31;52.82
40992;BME280;29633;49.168;9.848;2023-04-05T13:40:11;97087.34;;;16.33;52.60